sensor_id;sensor_type;location;lat;lon;timestamp;pressure;altitude;pressure_sealevel;temperature;humidity
11395;BME280;5753;54.402;10.220;2022-11-20T00:02:14;101174.63;;;12.82;44.20
11395;BME280;5753;54.402;10.220;2022-11-20T00:04:40;101171.31;;;12.93;43.94
11395;BME280;5753;54.402;10.220;2022-11-20T00:07:06;101170.84;;;13.27;42.94
11395;BME280;5753;54.402;10.220;2022-11-20T00:09:34;101175.75;;;11.81;46.41
11395;BME280;5753;54.402;10.220;2022-11-20T00:12:00;101171.38;;;12.30;45.76
11395;BME280;5753;54.402;10.220;2022-11-20T00:14:26;101176.25;;;12.12;46.01
11395;BME280;5753;54.402;10.220;2022-11-20T00:16:53;101177.81;;;11.04;48.42
11395;BME280;5753;54.402;10.220;2022-11-20T00:19:19;101174.38;;;11.52;47.11
11395;BME280;5753;54.402;10.220;2022-11-20T00:21:45;101169.59;;;12.29;45.12
11395;BME280;5753;54.402;10.220;2022-11-20T00:24:11;101167.66;;;12.13;45.45
11395;BME280;5753;54.402;10.220;2022-11-20T00:26:37;101172.94;;;11.67;46.07
11395;BME280;5753;54.402;10.220;2022-11-20T00:29:03;101174.13;;;12.42;44.41
11395;BME280;5753;54.402;10.220;2022-11-20T00:31:31;101173.09;;;11.28;47.36
11395;BME280;5753;54.402;10.220;2022-11-20T00:33:58;101175.81;;;11.83;45.70
11395;BME280;5753;54.402;10.220;2022-11-20T00:36:26;101174.34;;;12.00;45.25
11395;BME280;5753;54.402;10.220;2022-11-20T00:38:55;101181.06;;;10.94;47.74
11395;BME280;5753;54.402;10.220;2022-11-20T00:41:22;101178.13;;;11.69;46.00
11395;BME280;5753;54.402;10.220;2022-11-20T00:43:49;101171.34;;;11.76;45.86
11395;BME280;5753;54.402;10.220;2022-11-20T00:46:17;101164.34;;;12.88;42.69
11395;BME280;5753;54.402;10.220;2022-11-20T00:48:44;101159.97;;;12.82;42.97
11395;BME280;5753;54.402;10.220;2022-11-20T00:51:13;101160.94;;;12.90;42.67
11395;BME280;5753;54.402;10.220;2022-11-20T00:53:39;101152.38;;;12.96;42.71
11395;BME280;5753;54.402;10.220;2022-11-20T00:56:10;101155.22;;;13.19;42.17
11395;BME280;5753;54.402;10.220;2022-11-20T00:58:41;101163.78;;;13.16;42.48
11395;BME280;5753;54.402;10.220;2022-11-20T01:03:35;101149.28;;;13.26;42.24
11395;BME280;5753;54.402;10.220;2022-11-20T01:06:07;101158.94;;;13.44;42.08
11395;BME280;5753;54.402;10.220;2022-11-20T01:08:34;101156.44;;;13.56;41.64
11395;BME280;5753;54.402;10.220;2022-11-20T01:11:02;101157.94;;;12.58;43.70
11395;BME280;5753;54.402;10.220;2022-11-20T01:13:30;101155.53;;;12.09;44.74
11395;BME280;5753;54.402;10.220;2022-11-20T01:18:54;101148.44;;;12.57;44.66
11395;BME280;5753;54.402;10.220;2022-11-20T01:21:24;101150.19;;;13.30;43.28
11395;BME280;5753;54.402;10.220;2022-11-20T01:23:51;101139.28;;;12.81;44.52
11395;BME280;5753;54.402;10.220;2022-11-20T01:26:26;101150.53;;;12.84;44.82
11395;BME280;5753;54.402;10.220;2022-11-20T01:28:53;101156.22;;;13.30;43.84
11395;BME280;5753;54.402;10.220;2022-11-20T01:31:30;101144.63;;;12.99;44.60
11395;BME280;5753;54.402;10.220;2022-11-20T01:33:58;101139.56;;;12.36;46.10
11395;BME280;5753;54.402;10.220;2022-11-20T01:36:28;101137.75;;;13.01;44.62
11395;BME280;5753;54.402;10.220;2022-11-20T01:39:00;101134.28;;;12.99;44.67
11395;BME280;5753;54.402;10.220;2022-11-20T01:41:29;101126.31;;;12.78;44.93
11395;BME280;5753;54.402;10.220;2022-11-20T01:44:16;101133.72;;;12.52;45.27
11395;BME280;5753;54.402;10.220;2022-11-20T01:47:03;101129.91;;;12.92;44.62
11395;BME280;5753;54.402;10.220;2022-11-20T01:49:51;101124.91;;;10.40;49.43
11395;BME280;5753;54.402;10.220;2022-11-20T01:52:24;101131.38;;;11.04;49.80
11395;BME280;5753;54.402;10.220;2022-11-20T01:55:19;101127.81;;;11.46;47.09
11395;BME280;5753;54.402;10.220;2022-11-20T01:57:44;101119.75;;;11.79;46.49
11395;BME280;5753;54.402;10.220;2022-11-20T02:00:13;101127.19;;;11.59;45.94
11395;BME280;5753;54.402;10.220;2022-11-20T02:03:03;101120.88;;;11.94;45.68
11395;BME280;5753;54.402;10.220;2022-11-20T02:05:45;101130.00;;;12.30;44.20
11395;BME280;5753;54.402;10.220;2022-11-20T02:08:13;101116.78;;;12.77;43.13
11395;BME280;5753;54.402;10.220;2022-11-20T02:10:39;101116.66;;;12.66;43.40
11395;BME280;5753;54.402;10.220;2022-11-20T02:13:05;101115.03;;;12.76;43.05
11395;BME280;5753;54.402;10.220;2022-11-20T02:15:50;101116.88;;;12.83;42.52
11395;BME280;5753;54.402;10.220;2022-11-20T02:18:19;101118.63;;;12.87;42.48
11395;BME280;5753;54.402;10.220;2022-11-20T02:20:48;101111.56;;;12.72;42.23
11395;BME280;5753;54.402;10.220;2022-11-20T02:25:57;101108.06;;;12.69;42.64
11395;BME280;5753;54.402;10.220;2022-11-20T02:28:24;101109.00;;;12.75;42.49
11395;BME280;5753;54.402;10.220;2022-11-20T02:30:50;101109.78;;;12.67;42.46
11395;BME280;5753;54.402;10.220;2022-11-20T02:33:16;101106.22;;;12.58;42.97
11395;BME280;5753;54.402;10.220;2022-11-20T02:35:45;101108.97;;;12.72;42.30
11395;BME280;5753;54.402;10.220;2022-11-20T02:38:11;101105.66;;;12.82;42.26
11395;BME280;5753;54.402;10.220;2022-11-20T02:40:38;101103.97;;;12.86;42.13
11395;BME280;5753;54.402;10.220;2022-11-20T02:43:04;101106.53;;;12.83;42.15
11395;BME280;5753;54.402;10.220;2022-11-20T02:45:30;101101.38;;;12.86;42.20
11395;BME280;5753;54.402;10.220;2022-11-20T02:47:57;101105.72;;;12.87;42.20
11395;BME280;5753;54.402;10.220;2022-11-20T02:50:23;101104.63;;;12.70;42.47
11395;BME280;5753;54.402;10.220;2022-11-20T02:52:49;101099.13;;;12.39;43.32
11395;BME280;5753;54.402;10.220;2022-11-20T02:55:16;101110.94;;;12.23;43.63
11395;BME280;5753;54.402;10.220;2022-11-20T02:57:42;101108.06;;;12.69;42.40
11395;BME280;5753;54.402;10.220;2022-11-20T03:00:08;101101.34;;;12.83;42.33
11395;BME280;5753;54.402;10.220;2022-11-20T03:02:35;101096.75;;;12.59;43.00
11395;BME280;5753;54.402;10.220;2022-11-20T03:05:01;101102.03;;;12.70;42.54
11395;BME280;5753;54.402;10.220;2022-11-20T03:07:27;101108.78;;;11.90;44.34
11395;BME280;5753;54.402;10.220;2022-11-20T03:09:53;101099.53;;;12.08;43.88
11395;BME280;5753;54.402;10.220;2022-11-20T03:12:19;101095.56;;;12.31;43.49
11395;BME280;5753;54.402;10.220;2022-11-20T03:14:45;101106.56;;;12.18;43.64
11395;BME280;5753;54.402;10.220;2022-11-20T03:17:12;101099.16;;;12.42;43.24
11395;BME280;5753;54.402;10.220;2022-11-20T03:19:38;101104.78;;;12.12;44.01
11395;BME280;5753;54.402;10.220;2022-11-20T03:22:04;101106.44;;;11.53;44.77
11395;BME280;5753;54.402;10.220;2022-11-20T03:24:30;101104.56;;;10.94;46.48
11395;BME280;5753;54.402;10.220;2022-11-20T03:26:56;101111.59;;;11.04;46.54
11395;BME280;5753;54.402;10.220;2022-11-20T03:29:22;101094.06;;;11.85;44.69
11395;BME280;5753;54.402;10.220;2022-11-20T03:31:48;101099.63;;;12.15;44.13
11395;BME280;5753;54.402;10.220;2022-11-20T03:34:14;101097.78;;;11.51;45.05
11395;BME280;5753;54.402;10.220;2022-11-20T03:36:42;101081.53;;;12.14;44.33
11395;BME280;5753;54.402;10.220;2022-11-20T03:39:08;101087.00;;;12.35;43.93
11395;BME280;5753;54.402;10.220;2022-11-20T03:41:40;101087.34;;;12.66;43.46
11395;BME280;5753;54.402;10.220;2022-11-20T03:44:10;101077.22;;;11.57;44.79
11395;BME280;5753;54.402;10.220;2022-11-20T03:46:37;101089.03;;;12.64;43.24
11395;BME280;5753;54.402;10.220;2022-11-20T03:49:03;101073.63;;;12.71;42.80
11395;BME280;5753;54.402;10.220;2022-11-20T03:51:34;101080.72;;;12.89;42.71
11395;BME280;5753;54.402;10.220;2022-11-20T03:54:03;101067.81;;;12.90;42.53
11395;BME280;5753;54.402;10.220;2022-11-20T03:56:32;101070.50;;;13.04;42.17
11395;BME280;5753;54.402;10.220;2022-11-20T03:58:59;101070.47;;;12.98;42.19
11395;BME280;5753;54.402;10.220;2022-11-20T04:01:30;101080.03;;;13.07;42.09
11395;BME280;5753;54.402;10.220;2022-11-20T04:03:57;101069.47;;;12.85;42.39
11395;BME280;5753;54.402;10.220;2022-11-20T04:06:29;101071.06;;;12.74;43.19
11395;BME280;5753;54.402;10.220;2022-11-20T04:08:57;101070.59;;;13.13;42.17
11395;BME280;5753;54.402;10.220;2022-11-20T04:11:29;101078.16;;;12.90;42.42
11395;BME280;5753;54.402;10.220;2022-11-20T04:13:58;101083.81;;;11.37;45.42
11395;BME280;5753;54.402;10.220;2022-11-20T04:16:25;101077.81;;;11.93;44.60
11395;BME280;5753;54.402;10.220;2022-11-20T04:18:53;101073.41;;;12.51;43.24
11395;BME280;5753;54.402;10.220;2022-11-20T04:21:20;101065.84;;;12.71;42.76
11395;BME280;5753;54.402;10.220;2022-11-20T04:23:46;101065.13;;;12.81;42.67
11395;BME280;5753;54.402;10.220;2022-11-20T04:26:12;101066.16;;;13.00;42.38
11395;BME280;5753;54.402;10.220;2022-11-20T04:28:40;101061.00;;;13.02;42.20
11395;BME280;5753;54.402;10.220;2022-11-20T04:31:08;101064.53;;;13.11;41.74
11395;BME280;5753;54.402;10.220;2022-11-20T04:33:36;101075.06;;;12.45;43.36
11395;BME280;5753;54.402;10.220;2022-11-20T04:36:05;101069.88;;;12.43;43.28
11395;BME280;5753;54.402;10.220;2022-11-20T04:38:31;101064.63;;;12.39;43.65
11395;BME280;5753;54.402;10.220;2022-11-20T04:40:59;101067.59;;;12.74;42.55
11395;BME280;5753;54.402;10.220;2022-11-20T04:43:25;101058.03;;;12.67;42.69
11395;BME280;5753;54.402;10.220;2022-11-20T04:45:56;101061.50;;;12.67;43.01
11395;BME280;5753;54.402;10.220;2022-11-20T04:48:23;101057.06;;;12.55;42.94
11395;BME280;5753;54.402;10.220;2022-11-20T04:50:49;101053.84;;;12.76;42.68
11395;BME280;5753;54.402;10.220;2022-11-20T04:53:16;101047.84;;;12.79;42.28
11395;BME280;5753;54.402;10.220;2022-11-20T04:55:42;101057.25;;;12.72;42.39
11395;BME280;5753;54.402;10.220;2022-11-20T04:58:08;101047.75;;;12.73;42.41
11395;BME280;5753;54.402;10.220;2022-11-20T05:00:34;101049.72;;;12.95;42.07
11395;BME280;5753;54.402;10.220;2022-11-20T05:03:00;101044.94;;;12.48;43.01
11395;BME280;5753;54.402;10.220;2022-11-20T05:05:27;101040.97;;;12.81;42.21
11395;BME280;5753;54.402;10.220;2022-11-20T05:07:55;101050.34;;;12.71;42.39
11395;BME280;5753;54.402;10.220;2022-11-20T05:10:21;101049.44;;;11.95;44.50
11395;BME280;5753;54.402;10.220;2022-11-20T05:12:47;101047.09;;;12.15;44.16
11395;BME280;5753;54.402;10.220;2022-11-20T05:15:14;101043.03;;;11.73;44.38
11395;BME280;5753;54.402;10.220;2022-11-20T05:17:40;101044.34;;;11.44;45.32
11395;BME280;5753;54.402;10.220;2022-11-20T05:20:06;101038.03;;;12.47;43.04
11395;BME280;5753;54.402;10.220;2022-11-20T05:22:33;101033.06;;;12.69;42.42
11395;BME280;5753;54.402;10.220;2022-11-20T05:24:59;101028.84;;;12.77;41.78
11395;BME280;5753;54.402;10.220;2022-11-20T05:27:25;101028.38;;;12.31;43.03
11395;BME280;5753;54.402;10.220;2022-11-20T05:29:51;101022.56;;;12.53;42.37
11395;BME280;5753;54.402;10.220;2022-11-20T05:32:17;101027.88;;;12.66;42.41
11395;BME280;5753;54.402;10.220;2022-11-20T05:34:43;101030.03;;;12.29;43.30
11395;BME280;5753;54.402;10.220;2022-11-20T05:37:09;101028.94;;;12.10;43.04
11395;BME280;5753;54.402;10.220;2022-11-20T05:39:36;101023.56;;;12.68;42.48
11395;BME280;5753;54.402;10.220;2022-11-20T05:42:02;101022.09;;;12.14;43.64
11395;BME280;5753;54.402;10.220;2022-11-20T05:44:46;101023.31;;;12.42;43.21
11395;BME280;5753;54.402;10.220;2022-11-20T05:47:12;101015.66;;;12.51;43.07
11395;BME280;5753;54.402;10.220;2022-11-20T05:49:38;101018.81;;;12.28;43.13
11395;BME280;5753;54.402;10.220;2022-11-20T05:52:05;101021.72;;;12.54;42.80
11395;BME280;5753;54.402;10.220;2022-11-20T05:54:31;101016.75;;;12.76;42.25
11395;BME280;5753;54.402;10.220;2022-11-20T05:56:57;101016.19;;;12.24;42.46
11395;BME280;5753;54.402;10.220;2022-11-20T05:59:23;101010.50;;;12.52;42.54
11395;BME280;5753;54.402;10.220;2022-11-20T06:01:49;101005.88;;;12.27;43.14
11395;BME280;5753;54.402;10.220;2022-11-20T06:04:15;101006.28;;;12.60;42.58
11395;BME280;5753;54.402;10.220;2022-11-20T06:06:41;101005.16;;;12.36;43.21
11395;BME280;5753;54.402;10.220;2022-11-20T06:09:08;101006.34;;;12.70;42.10
11395;BME280;5753;54.402;10.220;2022-11-20T06:11:34;101002.53;;;12.31;43.12
11395;BME280;5753;54.402;10.220;2022-11-20T06:14:00;101000.22;;;12.60;42.30
11395;BME280;5753;54.402;10.220;2022-11-20T06:16:26;101003.81;;;12.76;42.20
11395;BME280;5753;54.402;10.220;2022-11-20T06:18:52;101003.91;;;12.80;42.21
11395;BME280;5753;54.402;10.220;2022-11-20T06:21:20;100995.28;;;12.80;41.99
11395;BME280;5753;54.402;10.220;2022-11-20T06:23:47;100997.84;;;12.80;41.97
11395;BME280;5753;54.402;10.220;2022-11-20T06:26:17;100992.75;;;12.86;41.47
11395;BME280;5753;54.402;10.220;2022-11-20T06:28:44;100991.66;;;12.64;42.00
11395;BME280;5753;54.402;10.220;2022-11-20T06:31:12;100991.63;;;12.63;42.34
11395;BME280;5753;54.402;10.220;2022-11-20T06:33:39;100999.03;;;12.29;43.00
11395;BME280;5753;54.402;10.220;2022-11-20T06:36:06;101003.56;;;12.48;42.75
11395;BME280;5753;54.402;10.220;2022-11-20T06:38:32;101002.19;;;12.04;44.19
11395;BME280;5753;54.402;10.220;2022-11-20T06:40:58;100998.03;;;12.18;43.09
11395;BME280;5753;54.402;10.220;2022-11-20T06:43:24;100992.78;;;12.92;42.58
11395;BME280;5753;54.402;10.220;2022-11-20T06:45:55;100998.81;;;12.89;42.20
11395;BME280;5753;54.402;10.220;2022-11-20T06:48:23;100996.72;;;12.53;42.13
11395;BME280;5753;54.402;10.220;2022-11-20T06:50:49;100996.47;;;13.17;41.31
11395;BME280;5753;54.402;10.220;2022-11-20T06:53:16;100996.69;;;12.49;42.01
11395;BME280;5753;54.402;10.220;2022-11-20T06:55:46;100996.28;;;12.14;44.30
11395;BME280;5753;54.402;10.220;2022-11-20T06:58:13;101002.78;;;12.55;43.52
11395;BME280;5753;54.402;10.220;2022-11-20T07:00:41;101002.81;;;12.58;43.91
11395;BME280;5753;54.402;10.220;2022-11-20T07:03:09;100997.81;;;11.39;46.15
11395;BME280;5753;54.402;10.220;2022-11-20T07:05:36;101001.28;;;12.00;45.51
11395;BME280;5753;54.402;10.220;2022-11-20T07:08:03;101003.47;;;11.74;45.92
11395;BME280;5753;54.402;10.220;2022-11-20T07:10:30;101003.16;;;12.15;45.06
11395;BME280;5753;54.402;10.220;2022-11-20T07:12:56;101002.38;;;11.57;45.84
11395;BME280;5753;54.402;10.220;2022-11-20T07:15:24;101006.56;;;12.11;45.00
11395;BME280;5753;54.402;10.220;2022-11-20T07:17:51;101015.16;;;12.08;44.75
11395;BME280;5753;54.402;10.220;2022-11-20T07:20:17;101007.44;;;12.13;45.00
11395;BME280;5753;54.402;10.220;2022-11-20T07:22:44;101004.03;;;12.14;44.82
11395;BME280;5753;54.402;10.220;2022-11-20T07:25:10;101002.31;;;11.52;45.68
11395;BME280;5753;54.402;10.220;2022-11-20T07:27:36;101002.06;;;11.93;45.12
11395;BME280;5753;54.402;10.220;2022-11-20T07:30:03;101010.59;;;10.82;47.35
11395;BME280;5753;54.402;10.220;2022-11-20T07:32:30;101003.38;;;11.68;45.47
11395;BME280;5753;54.402;10.220;2022-11-20T07:34:56;101008.53;;;12.30;44.00
11395;BME280;5753;54.402;10.220;2022-11-20T07:37:22;101007.19;;;11.91;44.90
11395;BME280;5753;54.402;10.220;2022-11-20T07:39:48;101013.88;;;12.47;43.39
11395;BME280;5753;54.402;10.220;2022-11-20T07:42:14;101007.69;;;12.31;43.78
11395;BME280;5753;54.402;10.220;2022-11-20T07:44:40;101007.81;;;12.43;43.48
11395;BME280;5753;54.402;10.220;2022-11-20T07:47:06;101001.59;;;12.27;43.80
11395;BME280;5753;54.402;10.220;2022-11-20T07:49:33;101005.25;;;12.46;43.08
11395;BME280;5753;54.402;10.220;2022-11-20T07:51:59;101004.38;;;12.44;43.56
11395;BME280;5753;54.402;10.220;2022-11-20T07:54:25;100998.75;;;12.85;42.45
11395;BME280;5753;54.402;10.220;2022-11-20T07:56:51;101003.19;;;12.98;42.35
11395;BME280;5753;54.402;10.220;2022-11-20T07:59:17;100992.06;;;13.11;42.48
11395;BME280;5753;54.402;10.220;2022-11-20T08:01:43;100996.41;;;13.15;41.87
11395;BME280;5753;54.402;10.220;2022-11-20T08:04:10;100996.34;;;13.06;41.85
11395;BME280;5753;54.402;10.220;2022-11-20T08:06:37;100992.03;;;13.07;42.23
11395;BME280;5753;54.402;10.220;2022-11-20T08:09:03;100992.31;;;13.36;41.62
11395;BME280;5753;54.402;10.220;2022-11-20T08:11:29;100994.84;;;13.27;41.39
11395;BME280;5753;54.402;10.220;2022-11-20T08:14:14;100991.31;;;13.23;42.55
11395;BME280;5753;54.402;10.220;2022-11-20T08:16:46;100997.13;;;12.95;42.49
11395;BME280;5753;54.402;10.220;2022-11-20T08:19:17;101001.53;;;13.09;42.78
11395;BME280;5753;54.402;10.220;2022-11-20T08:21:44;100999.78;;;13.02;42.69
11395;BME280;5753;54.402;10.220;2022-11-20T08:24:11;100994.13;;;12.53;43.86
11395;BME280;5753;54.402;10.220;2022-11-20T08:26:38;100996.81;;;13.70;42.81
11395;BME280;5753;54.402;10.220;2022-11-20T08:29:05;100997.97;;;12.92;43.55
11395;BME280;5753;54.402;10.220;2022-11-20T08:31:32;100992.59;;;13.81;41.28
11395;BME280;5753;54.402;10.220;2022-11-20T08:33:58;101003.53;;;13.35;42.24
11395;BME280;5753;54.402;10.220;2022-11-20T08:36:24;100998.50;;;13.61;41.32
11395;BME280;5753;54.402;10.220;2022-11-20T08:38:53;100995.84;;;13.51;41.46
11395;BME280;5753;54.402;10.220;2022-11-20T08:41:19;101002.59;;;12.37;42.74
11395;BME280;5753;54.402;10.220;2022-11-20T08:43:56;101004.63;;;12.69;42.33
11395;BME280;5753;54.402;10.220;2022-11-20T08:46:24;101011.72;;;12.88;42.31
11395;BME280;5753;54.402;10.220;2022-11-20T08:48:50;101001.47;;;12.18;43.75
11395;BME280;5753;54.402;10.220;2022-11-20T08:51:17;100999.25;;;11.79;44.03
11395;BME280;5753;54.402;10.220;2022-11-20T08:53:44;101007.81;;;12.43;42.36
11395;BME280;5753;54.402;10.220;2022-11-20T08:56:10;101000.44;;;12.03;43.82
11395;BME280;5753;54.402;10.220;2022-11-20T08:58:38;100994.25;;;11.90;44.41
11395;BME280;5753;54.402;10.220;2022-11-20T09:01:04;101004.94;;;11.57;45.25
11395;BME280;5753;54.402;10.220;2022-11-20T09:03:30;100989.59;;;11.66;46.33
11395;BME280;5753;54.402;10.220;2022-11-20T09:05:58;100999.28;;;12.52;44.91
11395;BME280;5753;54.402;10.220;2022-11-20T09:08:25;101002.09;;;12.75;44.61
11395;BME280;5753;54.402;10.220;2022-11-20T09:10:55;101002.00;;;13.70;42.60
11395;BME280;5753;54.402;10.220;2022-11-20T09:13:23;100995.19;;;13.81;41.82
11395;BME280;5753;54.402;10.220;2022-11-20T09:15:57;100998.69;;;13.96;40.22
11395;BME280;5753;54.402;10.220;2022-11-20T09:18:24;100996.19;;;12.88;41.50
11395;BME280;5753;54.402;10.220;2022-11-20T09:20:51;101003.69;;;13.62;41.18
11395;BME280;5753;54.402;10.220;2022-11-20T09:23:17;101008.38;;;13.01;42.02
11395;BME280;5753;54.402;10.220;2022-11-20T09:25:44;101002.03;;;12.69;41.99
11395;BME280;5753;54.402;10.220;2022-11-20T09:28:10;101007.94;;;12.55;41.55
11395;BME280;5753;54.402;10.220;2022-11-20T09:30:36;101011.06;;;12.27;42.36
11395;BME280;5753;54.402;10.220;2022-11-20T09:33:05;101016.63;;;11.88;42.64
11395;BME280;5753;54.402;10.220;2022-11-20T09:35:32;101008.84;;;12.59;43.29
11395;BME280;5753;54.402;10.220;2022-11-20T09:38:03;101019.78;;;12.35;42.52
11395;BME280;5753;54.402;10.220;2022-11-20T09:40:29;101021.56;;;12.39;42.19
11395;BME280;5753;54.402;10.220;2022-11-20T09:43:03;101017.00;;;12.18;42.51
11395;BME280;5753;54.402;10.220;2022-11-20T09:48:25;101019.09;;;12.51;43.00
11395;BME280;5753;54.402;10.220;2022-11-20T09:56:10;101016.41;;;12.39;42.99
11395;BME280;5753;54.402;10.220;2022-11-20T09:58:42;101015.03;;;12.75;42.61
11395;BME280;5753;54.402;10.220;2022-11-20T10:01:18;101017.19;;;12.34;42.89
11395;BME280;5753;54.402;10.220;2022-11-20T10:06:15;101022.19;;;13.00;42.27
11395;BME280;5753;54.402;10.220;2022-11-20T10:08:50;101015.97;;;12.06;43.28
11395;BME280;5753;54.402;10.220;2022-11-20T10:11:41;101016.16;;;12.21;43.39
11395;BME280;5753;54.402;10.220;2022-11-20T10:20:07;101013.88;;;12.47;41.89
11395;BME280;5753;54.402;10.220;2022-11-20T10:30:51;101004.44;;;11.79;43.49
11395;BME280;5753;54.402;10.220;2022-11-20T10:33:25;101009.25;;;12.18;43.55
11395;BME280;5753;54.402;10.220;2022-11-20T10:36:23;101008.41;;;13.03;41.68
11395;BME280;5753;54.402;10.220;2022-11-20T10:39:06;101003.63;;;12.54;42.45
11395;BME280;5753;54.402;10.220;2022-11-20T10:41:44;101005.25;;;12.45;42.34
11395;BME280;5753;54.402;10.220;2022-11-20T10:44:17;101001.78;;;13.31;42.02
11395;BME280;5753;54.402;10.220;2022-11-20T10:47:14;101001.88;;;12.53;42.35
11395;BME280;5753;54.402;10.220;2022-11-20T10:49:45;101000.81;;;12.33;42.88
11395;BME280;5753;54.402;10.220;2022-11-20T10:52:56;100991.78;;;11.97;43.16
11395;BME280;5753;54.402;10.220;2022-11-20T10:55:30;100992.31;;;12.43;42.35
11395;BME280;5753;54.402;10.220;2022-11-20T10:58:13;100998.34;;;12.42;42.78
11395;BME280;5753;54.402;10.220;2022-11-20T11:00:40;100989.47;;;12.22;42.71
11395;BME280;5753;54.402;10.220;2022-11-20T11:03:27;100993.28;;;12.54;41.89
11395;BME280;5753;54.402;10.220;2022-11-20T11:06:12;100994.13;;;13.52;41.28
11395;BME280;5753;54.402;10.220;2022-11-20T11:08:43;100993.13;;;13.29;40.38
11395;BME280;5753;54.402;10.220;2022-11-20T11:11:32;100992.28;;;13.33;40.30
11395;BME280;5753;54.402;10.220;2022-11-20T11:16:35;100987.28;;;13.65;40.70
11395;BME280;5753;54.402;10.220;2022-11-20T11:19:20;100993.63;;;12.09;42.00
11395;BME280;5753;54.402;10.220;2022-11-20T11:21:54;100991.38;;;12.37;42.41
11395;BME280;5753;54.402;10.220;2022-11-20T11:24:26;100994.44;;;12.84;41.64
11395;BME280;5753;54.402;10.220;2022-11-20T11:27:00;100984.53;;;13.33;41.21
11395;BME280;5753;54.402;10.220;2022-11-20T11:29:30;100988.63;;;12.23;43.18
11395;BME280;5753;54.402;10.220;2022-11-20T11:32:28;100987.78;;;13.16;41.43
11395;BME280;5753;54.402;10.220;2022-11-20T11:35:18;100989.13;;;12.70;41.67
11395;BME280;5753;54.402;10.220;2022-11-20T11:37:46;100987.97;;;13.33;40.61
11395;BME280;5753;54.402;10.220;2022-11-20T11:40:14;100984.69;;;12.57;41.15
11395;BME280;5753;54.402;10.220;2022-11-20T11:42:50;100978.63;;;13.60;40.04
11395;BME280;5753;54.402;10.220;2022-11-20T11:45:19;100982.63;;;13.16;40.23
11395;BME280;5753;54.402;10.220;2022-11-20T11:47:49;100978.44;;;12.35;41.42
11395;BME280;5753;54.402;10.220;2022-11-20T12:06:44;100971.94;;;14.06;38.28
11395;BME280;5753;54.402;10.220;2022-11-20T12:09:13;100966.44;;;13.39;38.59
11395;BME280;5753;54.402;10.220;2022-11-20T12:12:10;100965.56;;;13.40;39.83
11395;BME280;5753;54.402;10.220;2022-11-20T12:14:42;100968.25;;;12.52;40.52
11395;BME280;5753;54.402;10.220;2022-11-20T12:17:13;100973.38;;;13.47;39.23
11395;BME280;5753;54.402;10.220;2022-11-20T12:19:39;100965.69;;;13.61;38.64
11395;BME280;5753;54.402;10.220;2022-11-20T12:27:39;100957.38;;;14.41;36.87
11395;BME280;5753;54.402;10.220;2022-11-20T12:30:13;100955.63;;;14.34;36.75
11395;BME280;5753;54.402;10.220;2022-11-20T12:41:25;100964.25;;;14.24;37.39
11395;BME280;5753;54.402;10.220;2022-11-20T12:44:19;100947.00;;;14.38;37.05
11395;BME280;5753;54.402;10.220;2022-11-20T12:47:39;100954.81;;;14.51;37.59
11395;BME280;5753;54.402;10.220;2022-11-20T12:59:24;100956.78;;;13.18;39.17
11395;BME280;5753;54.402;10.220;2022-11-20T13:01:58;100950.16;;;13.61;37.36
11395;BME280;5753;54.402;10.220;2022-11-20T13:07:14;100939.09;;;14.00;37.62
11395;BME280;5753;54.402;10.220;2022-11-20T13:09:48;100944.25;;;13.93;37.58
11395;BME280;5753;54.402;10.220;2022-11-20T13:12:28;100937.53;;;14.53;37.59
11395;BME280;5753;54.402;10.220;2022-11-20T13:15:14;100948.53;;;13.75;38.71
11395;BME280;5753;54.402;10.220;2022-11-20T13:17:52;100950.34;;;14.01;37.77
11395;BME280;5753;54.402;10.220;2022-11-20T13:20:20;100945.97;;;13.84;37.55
11395;BME280;5753;54.402;10.220;2022-11-20T13:22:48;100946.88;;;13.99;37.50
11395;BME280;5753;54.402;10.220;2022-11-20T13:25:31;100944.06;;;13.51;37.61
11395;BME280;5753;54.402;10.220;2022-11-20T13:28:00;100931.28;;;13.88;36.52
11395;BME280;5753;54.402;10.220;2022-11-20T13:30:28;100930.41;;;13.83;37.61
11395;BME280;5753;54.402;10.220;2022-11-20T13:33:08;100930.25;;;13.51;37.58
11395;BME280;5753;54.402;10.220;2022-11-20T13:35:42;100926.66;;;13.26;38.24
11395;BME280;5753;54.402;10.220;2022-11-20T13:38:13;100919.78;;;13.27;37.67
11395;BME280;5753;54.402;10.220;2022-11-20T13:40:58;100924.16;;;13.40;36.25
11395;BME280;5753;54.402;10.220;2022-11-20T13:43:46;100923.41;;;13.62;37.55
11395;BME280;5753;54.402;10.220;2022-11-20T13:46:13;100915.13;;;12.83;38.45
11395;BME280;5753;54.402;10.220;2022-11-20T13:48:43;100917.19;;;13.30;37.63
11395;BME280;5753;54.402;10.220;2022-11-20T13:51:53;100914.28;;;12.87;37.96
11395;BME280;5753;54.402;10.220;2022-11-20T13:57:27;100901.97;;;14.09;35.79
11395;BME280;5753;54.402;10.220;2022-11-20T14:02:34;100896.84;;;14.27;36.15
11395;BME280;5753;54.402;10.220;2022-11-20T14:05:01;100899.41;;;14.18;36.51
11395;BME280;5753;54.402;10.220;2022-11-20T14:07:37;100891.59;;;14.06;36.76
11395;BME280;5753;54.402;10.220;2022-11-20T14:10:06;100893.41;;;15.20;36.37
11395;BME280;5753;54.402;10.220;2022-11-20T14:12:44;100891.03;;;16.56;33.10
11395;BME280;5753;54.402;10.220;2022-11-20T14:15:31;100898.88;;;17.43;31.26
11395;BME280;5753;54.402;10.220;2022-11-20T14:17:58;100882.59;;;19.55;28.90
11395;BME280;5753;54.402;10.220;2022-11-20T14:20:27;100891.50;;;19.88;27.66
11395;BME280;5753;54.402;10.220;2022-11-20T14:22:55;100886.16;;;20.30;27.31
11395;BME280;5753;54.402;10.220;2022-11-20T14:25:26;100881.91;;;20.26;27.04
11395;BME280;5753;54.402;10.220;2022-11-20T14:28:01;100883.63;;;20.27;27.40
11395;BME280;5753;54.402;10.220;2022-11-20T14:30:42;100870.13;;;19.68;26.85